createdAt,value
2018-08-18T00:01:54.690Z,95868.83
2018-08-18T00:04:35.020Z,95862.61
2018-08-18T00:07:05.166Z,95862.61
2018-08-18T00:09:35.179Z,95868.53
2018-08-18T00:12:05.394Z,95867.72
2018-08-18T00:14:35.431Z,95870.98
2018-08-18T00:17:06.694Z,95863.69
2018-08-18T00:19:37.743Z,95872.59
2018-08-18T00:22:07.758Z,95875.54
2018-08-18T00:24:45.265Z,95870.96
2018-08-18T00:27:15.296Z,95865.84
2018-08-18T00:29:45.330Z,95870.42
2018-08-18T00:32:15.306Z,95868.52
2018-08-18T00:34:49.410Z,95873.38
2018-08-18T00:37:19.489Z,95871.49
2018-08-18T00:39:49.586Z,95875.24
2018-08-18T00:42:19.586Z,95877.93
2018-08-18T00:44:49.598Z,95879.30
2018-08-18T00:47:19.655Z,95876.34
2018-08-18T00:49:49.675Z,95876.05
2018-08-18T00:52:19.821Z,95877.66
2018-08-18T00:54:49.864Z,95878.19
2018-08-18T00:57:30.057Z,95880.09
2018-08-18T01:00:00.268Z,95883.55
2018-08-18T01:02:30.397Z,95893.25
2018-08-18T01:05:02.269Z,95886.50
2018-08-18T01:07:33.402Z,95891.89
2018-08-18T01:10:03.799Z,95895.13
2018-08-18T01:12:35.257Z,95899.42
2018-08-18T01:15:08.089Z,95907.28
2018-08-18T01:17:38.334Z,95915.87
2018-08-18T01:20:08.808Z,95914.49
2018-08-18T01:22:38.995Z,95921.77
2018-08-18T01:25:09.000Z,95923.37
2018-08-18T01:27:50.806Z,95925.55
2018-08-18T01:30:20.875Z,95916.62
2018-08-18T01:32:50.954Z,95919.85
2018-08-18T01:35:22.453Z,95917.47
2018-08-18T01:37:52.526Z,95918.28
2018-08-18T01:40:22.543Z,95914.98
2018-08-18T01:42:52.591Z,95925.13
2018-08-18T01:45:22.710Z,95935.89
2018-08-18T01:47:52.758Z,95937.48
2018-08-18T01:50:22.810Z,95944.73
2018-08-18T01:52:52.858Z,95942.03
2018-08-18T01:55:22.886Z,95938.23
2018-08-18T01:57:52.965Z,95940.91
2018-08-18T02:00:28.222Z,95935.80
2018-08-18T02:02:58.283Z,95939.54
2018-08-18T02:05:28.408Z,95943.81
2018-08-18T02:07:58.669Z,95943.30
2018-08-18T02:10:28.682Z,95943.30
2018-08-18T02:13:03.926Z,95944.44
2018-08-18T02:15:34.191Z,95941.95
2018-08-18T02:18:04.308Z,95943.53
2018-08-18T02:20:34.343Z,95944.66
2018-08-18T02:23:04.345Z,95939.22
2018-08-18T02:25:34.881Z,95947.53
2018-08-18T02:28:05.161Z,95941.54
2018-08-18T02:30:35.254Z,95948.80
2018-08-18T02:33:05.417Z,95947.97
2018-08-18T02:35:35.550Z,95949.05
2018-08-18T02:38:06.066Z,95942.54
2018-08-18T02:40:36.240Z,95948.72
2018-08-18T02:43:22.403Z,95958.66
2018-08-18T02:45:52.433Z,95953.23
2018-08-18T02:48:22.494Z,95952.69
2018-08-18T02:50:53.013Z,95948.10
2018-08-18T02:53:28.759Z,95951.27
2018-08-18T02:55:58.762Z,95947.72
2018-08-18T02:58:28.770Z,95947.14
2018-08-18T03:00:58.794Z,95947.95
2018-08-18T03:03:28.778Z,95948.84
2018-08-18T03:06:02.832Z,95944.77
2018-08-18T03:08:32.854Z,95948.78
2018-08-18T03:11:02.916Z,95942.27
2018-08-18T03:13:32.917Z,95951.39
2018-08-18T03:16:04.162Z,95950.02
2018-08-18T03:18:54.172Z,95949.94
2018-08-18T03:21:30.601Z,95956.05
2018-08-18T03:24:13.059Z,95948.75
2018-08-18T03:26:46.193Z,95948.43
2018-08-18T03:29:16.848Z,95952.98
2018-08-18T03:31:47.282Z,95950.80
2018-08-18T03:34:17.738Z,95955.61
2018-08-18T03:36:54.488Z,95957.48
2018-08-18T03:39:29.697Z,95953.45
2018-08-18T03:42:02.067Z,95958.27
2018-08-18T03:44:32.253Z,95960.73
2018-08-18T03:47:02.238Z,95964.46
2018-08-18T03:49:32.293Z,95956.95
2018-08-18T03:52:02.360Z,95957.80
2018-08-18T03:54:32.472Z,95963.27
2018-08-18T03:57:02.521Z,95968.09
2018-08-18T03:59:32.570Z,95970.77
2018-08-18T04:02:02.959Z,95966.42
2018-08-18T04:04:34.347Z,95973.11
2018-08-18T04:07:05.639Z,95970.39
2018-08-18T04:09:36.859Z,95984.91
2018-08-18T04:12:08.483Z,95984.62
2018-08-18T04:14:42.653Z,95980.03
2018-08-18T04:17:30.024Z,95983.24
2018-08-18T04:20:00.094Z,95996.41
2018-08-18T04:22:30.245Z,95995.30
2018-08-18T04:25:00.336Z,95999.07
2018-08-18T04:27:44.354Z,96001.43
2018-08-18T04:30:18.591Z,96001.13
2018-08-18T04:33:05.030Z,95999.23
2018-08-18T04:35:35.076Z,96001.59
2018-08-18T04:38:05.541Z,95999.43
2018-08-18T04:40:37.406Z,96000.45
2018-08-18T04:43:07.516Z,96002.87
2018-08-18T04:45:37.683Z,96008.50
2018-08-18T04:48:08.153Z,96003.09
2018-08-18T04:50:38.323Z,96006.60
2018-08-18T04:53:08.308Z,96016.78
2018-08-18T04:55:38.335Z,96011.94
2018-08-18T04:58:08.318Z,96005.19
2018-08-18T05:00:38.324Z,96009.77
2018-08-18T05:03:08.953Z,96003.06
2018-08-18T05:05:38.992Z,96014.36
2018-08-18T05:08:09.068Z,96010.38
2018-08-18T05:10:40.490Z,96008.80
2018-08-18T05:13:10.567Z,96005.91
2018-08-18T05:15:40.624Z,96004.64
2018-08-18T05:18:10.675Z,96005.78
2018-08-18T05:20:40.696Z,96003.43
2018-08-18T05:23:26.933Z,95997.66
2018-08-18T05:25:56.986Z,96007.91
2018-08-18T05:28:27.009Z,96009.87
2018-08-18T05:30:57.071Z,96012.00
2018-08-18T05:33:27.081Z,96007.84
2018-08-18T05:35:57.126Z,95999.78
2018-08-18T05:38:27.119Z,96013.02
2018-08-18T05:40:57.227Z,96010.89
2018-08-18T05:43:27.246Z,96016.11
2018-08-18T05:45:57.213Z,96010.47
2018-08-18T05:48:27.202Z,96019.64
2018-08-18T05:50:58.108Z,96018.61
2018-08-18T05:53:29.201Z,96018.42
2018-08-18T05:55:59.872Z,96021.45
2018-08-18T05:58:45.710Z,96027.69
2018-08-18T06:01:34.143Z,96024.80
2018-08-18T06:04:11.265Z,96025.22
2018-08-18T06:06:42.005Z,96022.34
2018-08-18T06:09:13.483Z,96029.70
2018-08-18T06:11:43.719Z,96023.88
2018-08-18T06:14:14.636Z,96021.17
2018-08-18T06:16:45.200Z,96032.77
2018-08-18T06:19:15.268Z,96029.62
2018-08-18T06:21:45.267Z,96035.34
2018-08-18T06:24:15.288Z,96033.49
2018-08-18T06:26:45.304Z,96033.79
2018-08-18T06:29:16.630Z,96036.27
2018-08-18T06:32:00.159Z,96033.33
2018-08-18T06:34:34.581Z,96032.02
2018-08-18T06:37:04.654Z,96030.12
2018-08-18T06:39:52.729Z,96034.22
2018-08-18T06:42:41.254Z,96039.63
2018-08-18T06:45:14.360Z,96035.03
2018-08-18T06:47:45.000Z,96037.75
2018-08-18T06:50:17.502Z,96040.47
2018-08-18T06:52:47.961Z,96041.29
2018-08-18T06:55:20.025Z,96042.91
2018-08-18T06:57:52.708Z,96046.98
2018-08-18T07:00:25.170Z,96047.50
2018-08-18T07:02:55.218Z,96046.70
2018-08-18T07:05:25.228Z,96045.06
2018-08-18T07:07:55.353Z,96042.12
2018-08-18T07:10:34.384Z,96047.23
2018-08-18T07:13:05.756Z,96049.38
2018-08-18T07:15:37.129Z,96049.37
2018-08-18T07:18:09.316Z,96056.94
2018-08-18T07:20:39.467Z,96060.70
2018-08-18T07:23:09.855Z,96057.95
2018-08-18T07:25:49.418Z,96061.72
2018-08-18T07:28:22.505Z,96052.21
2018-08-18T07:30:52.643Z,96051.63
2018-08-18T07:33:22.778Z,96052.42
2018-08-18T07:35:52.822Z,96052.38
2018-08-18T07:38:22.822Z,96053.13
2018-08-18T07:40:54.843Z,96050.67
2018-08-18T07:43:31.784Z,96050.05
2018-08-18T07:46:04.263Z,96049.17
2018-08-18T07:48:34.347Z,96047.19
2018-08-18T07:51:04.532Z,96047.88
2018-08-18T07:53:34.615Z,96051.63
2018-08-18T07:56:04.676Z,96053.19
2018-08-18T07:58:35.190Z,96065.63
2018-08-18T08:01:05.242Z,96066.86
2018-08-18T08:03:35.256Z,96067.56
2018-08-18T08:06:05.212Z,96071.57
2018-08-18T08:08:40.343Z,96076.08
2018-08-18T08:11:15.164Z,96072.70
2018-08-18T08:13:45.155Z,96078.31
2018-08-18T08:16:15.189Z,96078.80
2018-08-18T08:18:45.665Z,96078.64
2018-08-18T08:21:16.093Z,96081.77
2018-08-18T08:23:46.235Z,96085.44
2018-08-18T08:26:16.317Z,96090.54
2018-08-18T08:28:46.423Z,96084.00
2018-08-18T08:31:16.430Z,96084.23
2018-08-18T08:33:46.525Z,96080.80
2018-08-18T08:36:17.528Z,96089.02
2018-08-18T08:38:59.025Z,96091.73
2018-08-18T08:41:31.391Z,96083.08
2018-08-18T08:44:01.782Z,96087.39
2018-08-18T08:46:31.830Z,96087.85
2018-08-18T08:49:02.552Z,96088.09
2018-08-18T08:51:32.655Z,96084.30
2018-08-18T08:54:02.680Z,96087.08
2018-08-18T08:56:39.085Z,96086.48
2018-08-18T08:59:09.243Z,96091.97
2018-08-18T09:01:39.583Z,96082.70
2018-08-18T09:04:09.676Z,96087.02
2018-08-18T09:06:43.710Z,96087.66
2018-08-18T09:09:13.878Z,96090.38
2018-08-18T09:11:43.933Z,96088.31
2018-08-18T09:14:14.009Z,96086.14
2018-08-18T09:16:44.180Z,96082.64
2018-08-18T09:19:14.493Z,96091.00
2018-08-18T09:21:49.644Z,96097.45
2018-08-18T09:24:20.892Z,96093.55
2018-08-18T09:26:53.870Z,96088.75
2018-08-18T09:29:24.539Z,96091.17
2018-08-18T09:31:54.728Z,96089.03
2018-08-18T09:34:24.852Z,96092.52
2018-08-18T09:36:54.899Z,96098.47
2018-08-18T09:39:33.742Z,96096.72
2018-08-18T09:42:08.136Z,96092.89
2018-08-18T09:44:42.406Z,96092.55
2018-08-18T09:47:12.635Z,96090.33
2018-08-18T09:49:43.145Z,96093.73
2018-08-18T09:52:15.840Z,96081.08
2018-08-18T09:54:45.941Z,96088.61
2018-08-18T09:57:16.156Z,96083.20
2018-08-18T09:59:46.349Z,96086.97
2018-08-18T10:02:16.488Z,96085.03
2018-08-18T10:04:46.567Z,96084.20
2018-08-18T10:07:16.671Z,96088.63
2018-08-18T10:09:46.715Z,96086.88
2018-08-18T10:12:16.877Z,96083.13
2018-08-18T10:14:46.932Z,96084.31
2018-08-18T10:17:17.033Z,96085.91
2018-08-18T10:19:47.125Z,96084.69
2018-08-18T10:22:17.212Z,96085.04
2018-08-18T10:24:47.271Z,96079.35
2018-08-18T10:27:19.055Z,96085.67
2018-08-18T10:29:49.081Z,96080.23
2018-08-18T10:32:19.110Z,96080.23
2018-08-18T10:34:49.213Z,96090.55
2018-08-18T10:37:19.298Z,96087.05
2018-08-18T10:39:51.209Z,96090.53
2018-08-18T10:42:26.243Z,96090.25
2018-08-18T10:45:01.541Z,96089.38
2018-08-18T10:47:32.117Z,96084.50
2018-08-18T10:50:20.461Z,96082.91
2018-08-18T10:52:58.664Z,96078.47
2018-08-18T10:55:28.783Z,96080.88
2018-08-18T10:58:06.951Z,96081.62
2018-08-18T11:00:37.119Z,96078.19
2018-08-18T11:03:08.367Z,96076.35
2018-08-18T11:05:38.372Z,96083.13
2018-08-18T11:08:09.384Z,96076.84
2018-08-18T11:10:42.110Z,96072.25
2018-08-18T11:13:12.117Z,96071.19
2018-08-18T11:15:43.366Z,96077.41
2018-08-18T11:18:13.474Z,96079.69
2018-08-18T11:20:43.541Z,96080.14
2018-08-18T11:23:14.557Z,96080.51
2018-08-18T11:25:50.178Z,96075.70
2018-08-18T11:28:20.970Z,96075.97
2018-08-18T11:30:54.135Z,96079.25
2018-08-18T11:33:44.118Z,96075.37
2018-08-18T11:36:14.265Z,96085.94
2018-08-18T11:38:44.338Z,96081.50
2018-08-18T11:41:14.350Z,96079.96
2018-08-18T11:43:49.585Z,96087.45
2018-08-18T11:46:19.624Z,96075.48
2018-08-18T11:48:49.647Z,96064.78
2018-08-18T11:51:19.722Z,96074.48
2018-08-18T11:54:00.843Z,96074.06
2018-08-18T11:56:32.156Z,96067.15
2018-08-18T11:59:13.661Z,96074.65
2018-08-18T12:01:47.177Z,96076.34
2018-08-18T12:04:17.694Z,96071.19
2018-08-18T12:06:52.729Z,96068.52
2018-08-18T12:09:22.751Z,96070.52
2018-08-18T12:11:52.972Z,96055.80
2018-08-18T12:14:23.301Z,96063.20
2018-08-18T12:16:53.483Z,96059.84
2018-08-18T12:19:23.514Z,96060.95
2018-08-18T12:21:54.804Z,96062.66
2018-08-18T12:24:24.845Z,96058.16
2018-08-18T12:27:06.742Z,96055.34
2018-08-18T12:29:36.798Z,96052.69
2018-08-18T12:32:18.538Z,96046.33
2018-08-18T12:34:48.569Z,96046.15
2018-08-18T12:37:18.751Z,96053.39
2018-08-18T12:39:48.751Z,96054.61
2018-08-18T12:42:26.722Z,96048.88
2018-08-18T12:44:57.726Z,96049.14
2018-08-18T12:47:28.015Z,96044.55
2018-08-18T12:49:58.068Z,96054.84
2018-08-18T12:52:29.199Z,96046.63
2018-08-18T12:54:59.178Z,96047.59
2018-08-18T12:57:40.929Z,96037.94
2018-08-18T13:00:11.099Z,96037.50
2018-08-18T13:02:51.443Z,96034.09
2018-08-18T13:05:26.467Z,96040.81
2018-08-18T13:07:57.124Z,96036.89
2018-08-18T13:10:28.444Z,96030.53
2018-08-18T13:12:58.680Z,96033.91
2018-08-18T13:15:28.711Z,96029.25
2018-08-18T13:17:58.730Z,96030.13
2018-08-18T13:20:28.693Z,96024.57
2018-08-18T13:22:58.731Z,96022.65
2018-08-18T13:25:30.191Z,96021.00
2018-08-18T13:28:00.284Z,96020.61
2018-08-18T13:30:30.261Z,96015.86
2018-08-18T13:33:00.463Z,96018.78
2018-08-18T13:35:30.515Z,96017.06
2018-08-18T13:38:00.528Z,96012.36
2018-08-18T13:40:30.595Z,96021.69
2018-08-18T13:43:00.646Z,96017.06
2018-08-18T13:45:41.786Z,96009.13
2018-08-18T13:48:13.445Z,96007.90
2018-08-18T13:50:43.516Z,96005.47
2018-08-18T13:53:13.537Z,95996.64
2018-08-18T13:55:43.598Z,95998.28
2018-08-18T13:58:13.784Z,95997.99
2018-08-18T14:00:43.821Z,95989.43
2018-08-18T14:03:27.995Z,95985.45
2018-08-18T14:05:59.104Z,95991.18
2018-08-18T14:08:29.107Z,95987.63
2018-08-18T14:10:59.241Z,95993.16
2018-08-18T14:13:30.105Z,95983.95
2018-08-18T14:16:00.209Z,95976.00
2018-08-18T14:18:30.268Z,95981.66
2018-08-18T14:21:05.566Z,95978.89
2018-08-18T14:23:35.585Z,95983.59
2018-08-18T14:26:05.721Z,95982.28
2018-08-18T14:28:35.823Z,95976.59
2018-08-18T14:31:05.925Z,95983.44
2018-08-18T14:33:35.933Z,95981.42
2018-08-18T14:36:12.436Z,95984.85
2018-08-18T14:38:44.449Z,95977.93
2018-08-18T14:41:16.504Z,95979.30
2018-08-18T14:43:46.529Z,95985.20
2018-08-18T14:46:16.669Z,95976.00
2018-08-18T14:48:46.638Z,95968.46
2018-08-18T14:51:16.719Z,95976.85
2018-08-18T14:53:46.732Z,95974.58
2018-08-18T14:56:16.769Z,95975.36
2018-08-18T14:58:46.935Z,95979.16
2018-08-18T15:01:16.875Z,95979.30
2018-08-18T15:03:47.152Z,95981.16
2018-08-18T15:06:17.210Z,95981.16
2018-08-18T15:08:47.279Z,95975.69
2018-08-18T15:11:17.304Z,95981.53
2018-08-18T15:13:47.403Z,95979.13
2018-08-18T15:16:17.403Z,95979.69
2018-08-18T15:18:47.517Z,95977.12
2018-08-18T15:21:17.555Z,95972.31
2018-08-18T15:23:47.608Z,95970.39
2018-08-18T15:26:17.629Z,95975.52
2018-08-18T15:28:47.676Z,95974.27
2018-08-18T15:31:17.707Z,95976.33
2018-08-18T15:33:47.758Z,95974.06
2018-08-18T15:36:32.139Z,95964.81
2018-08-18T15:39:02.255Z,95974.80
2018-08-18T15:41:32.273Z,95972.55
2018-08-18T15:44:02.389Z,95972.90
2018-08-18T15:46:32.392Z,95970.32
2018-08-18T15:49:02.558Z,95966.47
2018-08-18T15:51:32.597Z,95971.27
2018-08-18T15:54:03.770Z,95972.72
2018-08-18T15:56:34.995Z,95973.60
2018-08-18T15:59:05.347Z,95980.81
2018-08-18T16:01:36.390Z,95978.34
2018-08-18T16:04:06.544Z,95970.76
2018-08-18T16:06:36.533Z,95971.86
2018-08-18T16:09:09.423Z,95972.45
2018-08-18T16:11:39.398Z,95972.03
2018-08-18T16:14:09.442Z,95972.72
2018-08-18T16:17:13.670Z,95970.45
2018-08-18T16:19:43.691Z,95979.02
2018-08-18T16:22:13.692Z,95979.70
2018-08-18T16:24:46.508Z,95977.14
2018-08-18T16:27:16.542Z,95972.23
2018-08-18T16:29:46.580Z,95973.67
2018-08-18T16:32:23.209Z,95965.55
2018-08-18T16:35:13.416Z,95965.45
2018-08-18T16:37:46.290Z,95968.41
2018-08-18T16:40:16.415Z,95965.70
2018-08-18T16:42:46.406Z,95977.27
2018-08-18T16:45:16.423Z,95966.84
2018-08-18T16:47:52.402Z,95967.42
2018-08-18T16:50:23.306Z,95965.57
2018-08-18T16:52:53.299Z,95961.61
2018-08-18T16:55:23.323Z,95961.39
2018-08-18T16:57:53.322Z,95965.48
2018-08-18T17:02:52.355Z,95969.11
2018-08-18T17:05:22.386Z,95970.52
2018-08-18T17:07:52.446Z,95966.88
2018-08-18T17:10:22.404Z,95967.98
2018-08-18T17:12:52.454Z,95966.88
2018-08-18T17:15:22.475Z,95965.75
2018-08-18T17:17:52.486Z,95973.21
2018-08-18T17:20:22.430Z,95976.66
2018-08-18T17:22:52.454Z,95976.36
2018-08-18T17:25:24.861Z,95973.30
2018-08-18T17:27:55.004Z,95978.94
2018-08-18T17:30:25.040Z,95979.45
2018-08-18T17:32:55.120Z,95974.49
2018-08-18T17:35:25.112Z,95979.84
2018-08-18T17:37:55.139Z,95983.49
2018-08-18T17:40:25.170Z,95986.39
2018-08-18T17:42:55.269Z,95989.20
2018-08-18T17:45:25.353Z,95984.73
2018-08-18T17:47:55.487Z,95990.06
2018-08-18T17:50:25.585Z,95988.70
2018-08-18T17:52:55.785Z,95991.59
2018-08-18T17:55:25.932Z,95999.95
2018-08-18T17:57:56.150Z,95999.56
2018-08-18T18:00:26.407Z,96001.58
2018-08-18T18:02:56.680Z,95999.33
2018-08-18T18:05:30.612Z,96001.71
2018-08-18T18:08:03.862Z,96005.86
2018-08-18T18:10:39.300Z,96009.53
2018-08-18T18:13:18.637Z,96009.73
2018-08-18T18:15:49.017Z,96008.27
2018-08-18T18:18:20.438Z,96007.09
2018-08-18T18:20:52.131Z,96009.13
2018-08-18T18:23:22.918Z,96016.87
2018-08-18T18:25:53.070Z,96013.23
2018-08-18T18:28:23.237Z,96017.44
2018-08-18T18:30:54.590Z,96018.34
2018-08-18T18:33:24.798Z,96025.63
2018-08-18T18:35:54.930Z,96023.89
2018-08-18T18:38:25.061Z,96026.48
2018-08-18T18:40:55.112Z,96029.08
2018-08-18T18:43:25.260Z,96030.07
2018-08-18T18:45:55.465Z,96023.80
2018-08-18T18:48:25.531Z,96027.73
2018-08-18T18:50:55.741Z,96035.22
2018-08-18T18:53:26.306Z,96033.98
2018-08-18T18:55:56.445Z,96036.03
2018-08-18T18:58:26.582Z,96047.52
2018-08-18T19:01:11.252Z,96053.63
2018-08-18T19:03:41.307Z,96062.91
2018-08-18T19:06:13.860Z,96058.11
2018-08-18T19:09:02.525Z,96057.09
2018-08-18T19:11:36.603Z,96060.16
2018-08-18T19:14:08.580Z,96062.17
2018-08-18T19:16:40.338Z,96067.94
2018-08-18T19:19:12.151Z,96070.17
2018-08-18T19:21:45.380Z,96080.27
2018-08-18T19:24:24.916Z,96079.77
2018-08-18T19:27:01.188Z,96083.83
2018-08-18T19:29:33.559Z,96085.77
2018-08-18T19:32:05.108Z,96088.73
2018-08-18T19:34:37.259Z,96089.59
2018-08-18T19:37:10.126Z,96089.93
2018-08-18T19:39:44.165Z,96097.55
2018-08-18T19:42:24.065Z,96095.45
2018-08-18T19:44:55.011Z,96088.69
2018-08-18T19:47:30.132Z,96100.09
2018-08-18T19:50:02.363Z,96099.00
2018-08-18T19:52:35.028Z,96096.58
2018-08-18T19:55:08.801Z,96099.56
2018-08-18T19:57:42.857Z,96102.81
2018-08-18T20:00:23.387Z,96105.53
2018-08-18T20:03:08.108Z,96106.37
2018-08-18T20:05:40.568Z,96106.64
2018-08-18T20:08:12.715Z,96113.72
2018-08-18T20:10:49.806Z,96114.24
2018-08-18T20:13:23.128Z,96107.47
2018-08-18T20:15:56.369Z,96106.14
2018-08-18T20:18:28.879Z,96104.54
2018-08-18T20:21:01.780Z,96101.03
2018-08-18T20:23:35.372Z,96109.16
2018-08-18T20:26:09.951Z,96105.94
2018-08-18T20:28:41.320Z,96104.58
2018-08-18T20:31:13.780Z,96110.55
2018-08-18T20:33:45.791Z,96114.37
2018-08-18T20:36:17.508Z,96112.75
2018-08-18T20:38:49.641Z,96114.92
2018-08-18T20:41:22.389Z,96114.92
2018-08-18T20:43:54.196Z,96113.32
2018-08-18T20:46:26.863Z,96111.97
2018-08-18T20:48:58.889Z,96110.05
2018-08-18T20:51:36.082Z,96108.17
2018-08-18T20:54:15.150Z,96114.70
2018-08-18T20:56:48.188Z,96117.41
2018-08-18T20:59:18.318Z,96121.48
2018-08-18T21:01:48.357Z,96120.66
2018-08-18T21:04:18.467Z,96121.48
2018-08-18T21:06:48.528Z,96120.41
2018-08-18T21:09:32.024Z,96121.77
2018-08-18T21:12:02.060Z,96119.85
2018-08-18T21:14:32.199Z,96114.18
2018-08-18T21:17:02.291Z,96117.70
2018-08-18T21:19:32.414Z,96113.37
2018-08-18T21:22:02.440Z,96114.73
2018-08-18T21:24:32.504Z,96123.14
2018-08-18T21:27:02.601Z,96127.20
2018-08-18T21:29:32.663Z,96121.78
2018-08-18T21:32:02.708Z,96122.84
2018-08-18T21:34:44.307Z,96126.66
2018-08-18T21:37:14.441Z,96131.25
2018-08-18T21:39:44.560Z,96126.90
2018-08-18T21:42:14.602Z,96126.88
2018-08-18T21:44:44.710Z,96135.00
2018-08-18T21:47:14.757Z,96132.82
2018-08-18T21:49:47.283Z,96134.72
2018-08-18T21:52:17.679Z,96137.13
2018-08-18T21:54:47.770Z,96134.41
2018-08-18T21:57:17.811Z,96140.34
2018-08-18T22:00:00.390Z,96137.39
2018-08-18T22:02:42.271Z,96139.52
2018-08-18T22:05:14.839Z,96142.23
2018-08-18T22:07:52.263Z,96146.86
2018-08-18T22:10:22.624Z,96142.52
2018-08-18T22:12:52.728Z,96140.88
2018-08-18T22:15:23.305Z,96139.80
2018-08-18T22:17:54.152Z,96135.45
2018-08-18T22:20:24.681Z,96133.04
2018-08-18T22:22:55.404Z,96131.98
2018-08-18T22:25:25.512Z,96131.70
2018-08-18T22:27:55.714Z,96127.92
2018-08-18T22:30:28.457Z,96129.57
2018-08-18T22:32:58.572Z,96125.50
2018-08-18T22:35:28.700Z,96127.41
2018-08-18T22:37:58.803Z,96123.89
2018-08-18T22:40:28.900Z,96123.12
2018-08-18T22:42:58.935Z,96123.67
2018-08-18T22:45:31.344Z,96127.45
2018-08-18T22:48:01.497Z,96129.93
2018-08-18T22:50:31.675Z,96123.99
2018-08-18T22:53:01.781Z,96119.69
2018-08-18T22:55:33.147Z,96111.05
2018-08-18T22:58:03.427Z,96114.59
2018-08-18T23:00:39.612Z,96114.31
2018-08-18T23:03:09.815Z,96111.08
2018-08-18T23:05:39.927Z,96105.95
2018-08-18T23:08:10.163Z,96100.80
2018-08-18T23:10:40.283Z,96103.48
2018-08-18T23:13:12.079Z,96107.02
2018-08-18T23:15:42.149Z,96108.13
2018-08-18T23:18:12.334Z,96103.52
2018-08-18T23:20:42.430Z,96106.52
2018-08-18T23:23:12.574Z,96112.75
2018-08-18T23:25:42.663Z,96104.09
2018-08-18T23:28:12.717Z,96101.67
2018-08-18T23:30:43.589Z,96102.47
2018-08-18T23:33:13.719Z,96094.91
2018-08-18T23:35:43.766Z,96103.29
2018-08-18T23:38:13.810Z,96100.84
2018-08-18T23:40:43.854Z,96101.95
2018-08-18T23:43:13.993Z,96104.13
2018-08-18T23:45:48.985Z,96108.19
2018-08-18T23:48:19.044Z,96101.16
2018-08-18T23:50:49.082Z,96100.09
2018-08-18T23:53:19.498Z,96101.20
2018-08-18T23:55:54.670Z,96095.27
2018-08-18T23:58:24.771Z,96096.61
